Time;durP1;ratioP1;P1;durP2;ratioP2;P2;SDS_P1;SDS_P2;PMS_P1;PMS_P2;Temp;Humidity;BMP_temperature;BMP_pressure;BME280_temperature;BME280_humidity;BME280_pressure;Samples;Min_cycle;Max_cycle;Signal;HPM_P1;HPM_P2
2021/11/10 00:01:10;;;;;;;16.35;10.38;;;5.70;79.10;;;;;;5012928;28;20510;-83
2021/11/10 00:03:37;;;;;;;16.92;9.68;;;5.70;79.10;;;;;;5012467;28;20105;-83
2021/11/10 00:06:04;;;;;;;17.38;10.95;;;5.70;79.10;;;;;;5011942;28;20481;-83
2021/11/10 00:08:30;;;;;;;14.35;9.40;;;5.60;79.10;;;;;;5012420;28;20062;-83
2021/11/10 00:10:58;;;;;;;17.38;10.02;;;5.60;79.10;;;;;;5012580;28;20050;-83
2021/11/10 00:13:24;;;;;;;18.35;11.48;;;5.60;79.00;;;;;;5012465;28;20549;-83
2021/11/10 00:15:52;;;;;;;20.10;10.93;;;5.50;79.00;;;;;;5012630;28;20056;-85
2021/11/10 00:18:20;;;;;;;18.33;10.65;;;5.50;79.00;;;;;;5011363;28;20123;-84
2021/11/10 00:20:47;;;;;;;17.35;11.15;;;5.50;79.00;;;;;;5014063;28;20050;-83
2021/11/10 00:23:15;;;;;;;15.32;10.75;;;5.50;79.00;;;;;;5012493;28;20502;-83
2021/11/10 00:25:42;;;;;;;18.77;10.43;;;5.50;79.00;;;;;;5012311;28;20058;-83
2021/11/10 00:28:09;;;;;;;18.75;11.38;;;5.40;79.00;;;;;;5012518;28;20042;-83
2021/11/10 00:30:36;;;;;;;18.75;11.00;;;5.40;79.00;;;;;;5012523;28;20056;-83
2021/11/10 00:33:03;;;;;;;20.65;10.73;;;5.40;79.00;;;;;;5011346;28;20061;-83
2021/11/10 00:35:30;;;;;;;18.40;10.98;;;5.40;78.90;;;;;;5012132;28;20478;-83
2021/11/10 00:37:57;;;;;;;17.83;10.63;;;5.30;78.90;;;;;;5012261;28;20079;-83
2021/11/10 00:40:24;;;;;;;19.20;11.05;;;5.30;78.90;;;;;;5012161;28;20469;-83
2021/11/10 00:42:51;;;;;;;15.52;10.90;;;5.30;78.90;;;;;;5012349;28;20042;-83
2021/11/10 00:45:18;;;;;;;18.98;11.00;;;5.30;78.90;;;;;;5011508;28;20046;-83
2021/11/10 00:47:45;;;;;;;18.67;11.15;;;5.20;78.90;;;;;;5011707;28;20057;-83
2021/11/10 00:50:12;;;;;;;19.13;11.23;;;5.20;78.90;;;;;;5012034;28;20046;-84
2021/11/10 00:52:38;;;;;;;22.33;11.70;;;5.20;78.80;;;;;;5011970;28;20061;-84
2021/11/10 00:55:06;;;;;;;16.95;11.07;;;5.20;78.80;;;;;;5012043;28;20042;-84
2021/11/10 00:57:33;;;;;;;20.27;11.35;;;5.20;78.80;;;;;;5011929;28;20100;-84
2021/11/10 01:00:00;;;;;;;22.80;12.00;;;5.20;78.80;;;;;;5011136;28;20550;-84
2021/11/10 01:02:27;;;;;;;17.27;11.57;;;5.10;78.80;;;;;;5011569;28;20046;-84
2021/11/10 01:04:54;;;;;;;18.45;10.93;;;5.10;78.80;;;;;;5011782;28;20053;-84
2021/11/10 01:07:25;;;;;;;14.85;10.88;;;5.00;78.80;;;;;;5011622;28;20046;-83
2021/11/10 01:09:58;;;;;;;18.90;12.07;;;5.10;78.80;;;;;;5011695;28;20573;-83
2021/11/10 01:12:25;;;;;;;20.40;12.67;;;5.00;78.80;;;;;;5011017;28;20073;-83
2021/11/10 01:14:52;;;;;;;23.52;12.80;;;5.00;78.80;;;;;;5011748;28;20054;-83
2021/11/10 01:17:19;;;;;;;26.40;14.20;;;5.00;78.80;;;;;;5011627;28;20054;-83
2021/11/10 01:19:47;;;;;;;24.42;14.10;;;5.00;78.80;;;;;;5010462;28;20046;-83
2021/11/10 01:22:14;;;;;;;25.27;14.30;;;4.90;78.80;;;;;;5011843;28;20509;-83
2021/11/10 01:24:41;;;;;;;21.70;13.70;;;4.90;78.80;;;;;;5011604;28;20116;-83
2021/11/10 01:27:09;;;;;;;24.48;13.48;;;4.90;78.80;;;;;;5011042;28;20049;-83
2021/11/10 01:29:37;;;;;;;23.05;13.48;;;4.90;78.80;;;;;;5013142;28;20121;-83
2021/11/10 01:32:05;;;;;;;23.10;13.85;;;4.90;78.90;;;;;;5015428;28;20050;-83
2021/11/10 01:34:32;;;;;;;20.35;13.30;;;4.90;78.80;;;;;;5015514;28;20042;-83
2021/11/10 01:36:59;;;;;;;25.20;13.63;;;4.90;78.90;;;;;;5015669;28;20057;-83
2021/11/10 01:39:26;;;;;;;19.17;12.88;;;4.80;78.90;;;;;;5014649;28;20054;-82
2021/11/10 01:42:02;;;;;;;20.02;12.77;;;4.90;78.90;;;;;;5015954;28;20556;-83
2021/11/10 01:44:31;;;;;;;22.08;13.25;;;4.80;78.90;;;;;;5015221;28;20112;-83
2021/11/10 01:47:03;;;;;;;21.58;13.18;;;4.80;78.90;;;;;;5015242;28;20528;-83
2021/11/10 01:49:30;;;;;;;18.05;12.93;;;4.80;78.90;;;;;;5015342;28;20173;-83
2021/11/10 01:51:59;;;;;;;23.83;13.02;;;4.70;78.80;;;;;;5015359;28;20045;-82
2021/11/10 01:54:28;;;;;;;21.00;12.75;;;4.70;78.90;;;;;;5014465;28;20045;-83
2021/11/10 01:56:56;;;;;;;20.08;13.07;;;4.70;78.80;;;;;;5015999;28;20054;-83
2021/11/10 01:59:33;;;;;;;24.08;12.85;;;4.70;78.90;;;;;;5014900;28;20050;-82
2021/11/10 02:02:04;;;;;;;22.00;12.90;;;4.70;78.90;;;;;;5015023;28;20053;-83
2021/11/10 02:04:34;;;;;;;18.13;12.30;;;4.70;78.90;;;;;;5015075;28;20042;-83
2021/11/10 02:07:02;;;;;;;20.58;12.10;;;4.70;78.90;;;;;;5014907;28;20588;-83
2021/11/10 02:09:29;;;;;;;18.10;12.60;;;4.70;78.80;;;;;;5014186;28;20049;-83
2021/11/10 02:11:57;;;;;;;19.75;13.10;;;4.60;78.80;;;;;;5014684;28;20057;-83
2021/11/10 02:14:26;;;;;;;21.27;12.88;;;4.70;78.80;;;;;;5014450;28;20100;-83
2021/11/10 02:16:55;;;;;;;17.55;11.82;;;4.60;78.80;;;;;;5014770;28;20054;-83
2021/11/10 02:19:25;;;;;;;23.27;12.68;;;4.60;78.80;;;;;;5014700;28;20076;-83
2021/11/10 02:21:56;;;;;;;17.90;12.48;;;4.60;78.80;;;;;;5014831;28;20060;-83
2021/11/10 02:24:25;;;;;;;21.45;12.05;;;4.50;78.90;;;;;;5013773;28;20057;-83
2021/11/10 02:26:53;;;;;;;18.92;12.75;;;4.50;78.90;;;;;;5013782;28;20049;-83
2021/11/10 02:29:29;;;;;;;17.45;12.40;;;4.50;78.90;;;;;;5014325;28;20058;-84
2021/11/10 02:31:58;;;;;;;18.05;12.60;;;4.50;78.90;;;;;;5014504;28;20057;-84
2021/11/10 02:34:25;;;;;;;17.98;12.13;;;4.50;78.90;;;;;;5014477;28;20041;-83
2021/11/10 02:36:51;;;;;;;17.85;12.00;;;4.50;78.80;;;;;;5014497;28;20080;-83
2021/11/10 02:39:22;;;;;;;18.77;12.75;;;4.50;78.90;;;;;;5013847;28;20042;-83
2021/11/10 02:41:50;;;;;;;18.23;11.88;;;4.50;78.90;;;;;;5013859;28;20061;-83
2021/11/10 02:44:19;;;;;;;17.05;12.23;;;4.40;78.90;;;;;;5014179;28;20046;-83
2021/11/10 02:46:48;;;;;;;18.42;11.98;;;4.40;78.90;;;;;;5014158;28;20053;-83
2021/11/10 02:49:15;;;;;;;17.20;12.10;;;4.40;78.90;;;;;;5014324;28;20045;-85
2021/11/10 02:52:08;;;;;;;19.70;12.40;;;4.40;78.80;;;;;;5014177;28;20057;-85
2021/11/10 02:54:39;;;;;;;16.33;11.60;;;4.40;78.80;;;;;;5012650;28;20046;-83
2021/11/10 02:57:07;;;;;;;17.40;11.80;;;4.30;78.80;;;;;;5013127;28;20053;-83
2021/11/10 02:59:34;;;;;;;17.38;11.70;;;4.30;78.80;;;;;;5013832;28;20065;-83
2021/11/10 03:02:03;;;;;;;21.70;12.02;;;4.40;78.80;;;;;;5013900;28;20050;-82
2021/11/10 03:04:35;;;;;;;22.08;12.35;;;4.40;78.80;;;;;;5013854;28;20045;-83
2021/11/10 03:07:03;;;;;;;16.05;11.82;;;4.30;78.80;;;;;;5013774;28;20498;-83
2021/11/10 03:09:32;;;;;;;22.08;12.55;;;4.30;78.80;;;;;;5013377;28;20054;-83
2021/11/10 03:12:01;;;;;;;18.10;12.25;;;4.20;78.80;;;;;;5010637;28;20498;-83
2021/11/10 03:14:31;;;;;;;17.95;13.15;;;4.20;78.80;;;;;;5013704;28;20107;-83
2021/11/10 03:16:58;;;;;;;18.48;12.02;;;4.20;78.80;;;;;;5013560;28;20057;-83
2021/11/10 03:19:26;;;;;;;18.27;12.48;;;4.20;78.80;;;;;;5013752;28;20049;-83
2021/11/10 03:21:53;;;;;;;21.27;13.27;;;4.20;78.70;;;;;;5012607;28;20056;-83
2021/11/10 03:24:21;;;;;;;17.83;12.65;;;4.20;78.80;;;;;;5012626;28;20104;-82
2021/11/10 03:26:48;;;;;;;18.08;13.20;;;4.20;78.80;;;;;;5012753;28;20050;-83
2021/11/10 03:29:15;;;;;;;21.50;13.63;;;4.20;78.80;;;;;;5013540;28;20100;-82
2021/11/10 03:31:42;;;;;;;19.73;12.98;;;4.10;78.80;;;;;;5013411;28;20057;-83
2021/11/10 03:34:11;;;;;;;18.15;13.30;;;4.10;78.90;;;;;;5013350;28;20042;-82
2021/11/10 03:36:40;;;;;;;20.42;13.32;;;4.20;78.90;;;;;;5013474;28;20053;-82
2021/11/10 03:39:10;;;;;;;21.75;13.05;;;4.10;78.90;;;;;;5012627;28;20054;-82
2021/11/10 03:41:38;;;;;;;18.77;13.15;;;4.20;79.00;;;;;;5012859;28;20426;-82
2021/11/10 03:44:05;;;;;;;18.92;13.23;;;4.10;79.00;;;;;;5013094;28;20529;-82
2021/11/10 03:46:32;;;;;;;16.98;12.88;;;4.10;79.00;;;;;;5011936;28;20116;-83
2021/11/10 03:49:00;;;;;;;18.42;11.73;;;4.10;79.00;;;;;;5013182;28;20069;-83
2021/11/10 03:51:27;;;;;;;19.27;13.50;;;4.10;79.00;;;;;;5011624;28;20050;-82
2021/11/10 03:53:55;;;;;;;16.42;12.70;;;4.10;79.00;;;;;;5012962;28;20050;-82
2021/11/10 03:56:22;;;;;;;18.42;13.13;;;4.10;79.00;;;;;;5012560;28;20050;-82
2021/11/10 03:58:50;;;;;;;16.38;13.27;;;4.10;79.10;;;;;;5012927;28;20580;-82
2021/11/10 04:01:17;;;;;;;18.25;13.32;;;4.10;79.10;;;;;;5011862;28;20050;-83
2021/11/10 04:03:45;;;;;;;19.67;12.80;;;4.10;79.10;;;;;;5012860;28;20042;-84
2021/11/10 04:06:12;;;;;;;17.35;12.60;;;4.10;79.10;;;;;;5012102;28;20049;-84
2021/11/10 04:08:39;;;;;;;17.80;12.00;;;4.10;79.10;;;;;;5012520;28;20057;-83
2021/11/10 04:11:06;;;;;;;19.63;13.07;;;4.10;79.10;;;;;;5012245;28;20054;-83
2021/11/10 04:13:34;;;;;;;22.13;13.30;;;4.10;79.10;;;;;;5012444;28;20057;-83
2021/11/10 04:16:01;;;;;;;19.40;13.23;;;4.10;79.10;;;;;;5012628;28;20106;-83
2021/11/10 04:18:33;;;;;;;20.92;13.95;;;4.10;79.10;;;;;;5011993;28;20529;-83
2021/11/10 04:21:01;;;;;;;21.38;13.13;;;4.10;79.10;;;;;;5009838;28;20050;-83
2021/11/10 04:23:30;;;;;;;22.13;13.25;;;4.00;79.10;;;;;;5011988;28;20100;-83
2021/11/10 04:25:59;;;;;;;22.13;13.73;;;4.10;79.10;;;;;;5012378;28;20435;-82
2021/11/10 04:28:27;;;;;;;18.13;12.70;;;4.00;79.10;;;;;;5012297;28;20482;-82
2021/11/10 04:30:54;;;;;;;20.02;13.80;;;4.10;79.10;;;;;;5012618;28;20509;-82
2021/11/10 04:33:26;;;;;;;21.73;13.55;;;4.00;79.10;;;;;;5011557;28;20054;-82
2021/11/10 04:35:54;;;;;;;20.48;12.68;;;4.00;79.10;;;;;;5012766;28;20549;-83
2021/11/10 04:38:21;;;;;;;19.70;13.60;;;4.00;79.10;;;;;;5013349;28;20053;-82
2021/11/10 04:40:49;;;;;;;17.25;12.68;;;4.00;79.10;;;;;;5011226;28;20060;-82
2021/11/10 04:43:16;;;;;;;19.88;13.32;;;4.00;79.10;;;;;;5012288;28;20116;-82
2021/11/10 04:45:45;;;;;;;22.48;13.35;;;4.00;79.10;;;;;;5012174;28;20438;-82
2021/11/10 04:48:12;;;;;;;16.02;12.65;;;4.00;79.10;;;;;;5011228;28;20096;-82
2021/11/10 04:50:43;;;;;;;20.33;12.93;;;4.00;79.10;;;;;;5012133;28;20494;-82
2021/11/10 04:53:12;;;;;;;19.27;12.70;;;4.00;79.10;;;;;;5011709;28;20065;-82
2021/11/10 04:55:40;;;;;;;16.98;12.73;;;4.00;79.00;;;;;;5012077;28;20563;-82
2021/11/10 04:58:07;;;;;;;19.20;13.88;;;4.00;79.00;;;;;;5012010;28;20107;-82
2021/11/10 05:00:34;;;;;;;20.50;13.25;;;4.00;79.00;;;;;;5012073;28;20054;-82
2021/11/10 05:03:02;;;;;;;16.25;13.05;;;4.00;79.00;;;;;;5008914;28;20050;-82
2021/11/10 05:05:29;;;;;;;21.23;13.57;;;4.00;79.00;;;;;;5011423;28;20081;-82
2021/11/10 05:07:56;;;;;;;16.25;12.73;;;4.00;79.00;;;;;;5011261;28;20105;-82
2021/11/10 05:10:23;;;;;;;18.42;13.07;;;3.90;79.00;;;;;;5011864;28;20069;-82
2021/11/10 05:12:50;;;;;;;17.70;13.73;;;4.00;79.00;;;;;;5011936;28;20053;-82
2021/11/10 05:15:17;;;;;;;23.08;14.20;;;3.90;79.00;;;;;;5007176;28;20057;-82
2021/11/10 05:17:44;;;;;;;18.48;12.43;;;3.90;78.90;;;;;;5013246;28;20049;-83
2021/11/10 05:20:11;;;;;;;19.25;12.90;;;3.90;78.90;;;;;;5011716;28;20050;-82
2021/11/10 05:22:39;;;;;;;19.58;13.75;;;3.90;78.90;;;;;;5011463;28;20045;-82
2021/11/10 05:25:08;;;;;;;17.35;13.35;;;3.90;78.90;;;;;;5011657;28;20050;-82
2021/11/10 05:27:36;;;;;;;19.08;13.45;;;3.90;78.90;;;;;;5011572;28;20061;-82
2021/11/10 05:30:05;;;;;;;21.45;13.25;;;3.90;78.90;;;;;;5011038;28;20046;-82
2021/11/10 05:32:32;;;;;;;18.60;13.35;;;3.80;78.80;;;;;;5011562;28;20050;-83
2021/11/10 05:34:59;;;;;;;18.77;12.90;;;3.80;78.80;;;;;;5011541;28;20046;-82
2021/11/10 05:37:27;;;;;;;18.20;13.25;;;3.80;78.80;;;;;;5011017;28;20050;-82
2021/11/10 05:39:55;;;;;;;19.77;14.38;;;3.80;78.80;;;;;;5011710;28;20554;-82
2021/11/10 05:42:24;;;;;;;25.45;15.63;;;3.70;78.80;;;;;;5010763;28;20046;-83
2021/11/10 05:44:52;;;;;;;21.58;15.13;;;3.70;78.80;;;;;;5011612;28;20085;-82
2021/11/10 05:47:20;;;;;;;20.83;14.88;;;3.70;78.70;;;;;;5011318;28;20082;-82
2021/11/10 05:49:48;;;;;;;19.27;15.27;;;3.70;78.80;;;;;;5011481;28;20038;-82
2021/11/10 05:52:15;;;;;;;22.17;15.20;;;3.70;78.70;;;;;;5011202;28;20057;-82
2021/11/10 05:54:43;;;;;;;21.42;14.52;;;3.70;78.70;;;;;;5011686;28;20053;-82
2021/11/10 05:57:13;;;;;;;21.73;14.90;;;3.70;78.70;;;;;;5010776;28;20108;-82
2021/11/10 05:59:41;;;;;;;20.10;15.20;;;3.60;78.70;;;;;;5011369;28;20054;-83
2021/11/10 06:02:09;;;;;;;22.55;15.57;;;3.60;78.70;;;;;;5011338;28;20042;-82
2021/11/10 06:04:36;;;;;;;21.00;15.63;;;3.50;78.70;;;;;;5011315;28;20049;-82
2021/11/10 06:07:05;;;;;;;25.10;16.08;;;3.50;78.70;;;;;;5011000;28;20510;-83
2021/11/10 06:09:32;;;;;;;22.15;16.45;;;3.50;78.70;;;;;;5010949;28;20058;-84
2021/11/10 06:11:59;;;;;;;22.70;16.42;;;3.50;78.70;;;;;;5010534;28;20089;-83
2021/11/10 06:14:26;;;;;;;21.48;15.55;;;3.50;78.70;;;;;;5011152;28;20115;-84
2021/11/10 06:16:53;;;;;;;21.17;15.05;;;3.50;78.70;;;;;;5014772;28;20046;-83
2021/11/10 06:19:20;;;;;;;23.38;16.40;;;3.50;78.70;;;;;;5014483;28;20510;-83
2021/11/10 06:21:47;;;;;;;19.52;16.08;;;3.50;78.70;;;;;;5014844;28;20053;-83
2021/11/10 06:24:17;;;;;;;23.48;15.63;;;3.50;78.70;;;;;;5013919;28;20050;-82
2021/11/10 06:26:44;;;;;;;27.77;16.95;;;3.50;78.70;;;;;;5014524;28;20050;-82
2021/11/10 06:29:11;;;;;;;19.27;15.75;;;3.50;78.80;;;;;;5014603;28;20498;-83
2021/11/10 06:31:38;;;;;;;19.80;15.50;;;3.50;78.80;;;;;;5014517;28;20046;-84
2021/11/10 06:34:05;;;;;;;23.13;15.57;;;3.40;78.80;;;;;;5011805;28;20062;-84
2021/11/10 06:36:32;;;;;;;18.80;15.57;;;3.40;78.80;;;;;;5002377;28;20061;-84
2021/11/10 06:38:59;;;;;;;21.75;15.93;;;3.40;78.80;;;;;;5014245;28;20461;-84
2021/11/10 06:41:26;;;;;;;27.77;16.13;;;3.40;78.80;;;;;;5015507;28;20426;-83
2021/11/10 06:43:52;;;;;;;20.55;15.55;;;3.40;78.80;;;;;;5015544;28;20053;-83
2021/11/10 06:46:20;;;;;;;17.92;14.60;;;3.40;78.80;;;;;;5015060;28;20096;-83
2021/11/10 06:48:47;;;;;;;21.45;15.45;;;3.40;78.80;;;;;;5015068;28;20057;-83
2021/11/10 06:51:15;;;;;;;19.17;14.93;;;3.40;78.90;;;;;;5014682;28;20053;-83
2021/11/10 06:53:43;;;;;;;19.48;14.82;;;3.40;78.80;;;;;;5014824;28;20110;-83
2021/11/10 06:56:11;;;;;;;23.95;15.35;;;3.40;78.90;;;;;;5015372;28;20050;-84
2021/11/10 06:58:38;;;;;;;20.33;15.50;;;3.40;78.80;;;;;;5015395;28;20038;-83
2021/11/10 07:01:06;;;;;;;23.40;15.60;;;3.40;78.80;;;;;;5019764;28;20076;-93
2021/11/10 07:03:35;;;;;;;23.30;16.45;;;3.30;78.80;;;;;;5033389;28;20077;-92
2021/11/10 07:06:02;;;;;;;24.10;15.57;;;3.30;78.80;;;;;;4995714;28;20046;-89
2021/11/10 07:08:29;;;;;;;21.75;15.52;;;3.30;78.80;;;;;;5029305;28;20111;-89
2021/11/10 07:10:56;;;;;;;23.23;16.40;;;3.30;78.80;;;;;;5021457;28;20564;-89
2021/11/10 07:13:23;;;;;;;21.70;15.82;;;3.30;78.80;;;;;;5015674;28;20449;-89
2021/11/10 07:15:51;;;;;;;20.75;15.25;;;3.30;78.80;;;;;;5016296;28;20056;-89
2021/11/10 07:18:18;;;;;;;22.05;16.63;;;3.20;78.90;;;;;;4995350;28;20046;-90
2021/11/10 07:20:45;;;;;;;22.08;16.30;;;3.20;78.90;;;;;;4995612;28;20105;-88
2021/11/10 07:23:12;;;;;;;22.85;16.40;;;3.20;78.90;;;;;;5010962;28;20060;-90
2021/11/10 07:25:39;;;;;;;22.33;16.33;;;3.20;78.90;;;;;;5014919;28;20046;-89
2021/11/10 07:28:06;;;;;;;22.25;16.88;;;3.20;79.00;;;;;;5015315;28;20510;-89
2021/11/10 07:30:33;;;;;;;20.52;15.70;;;3.20;79.00;;;;;;5014695;28;20042;-89
2021/11/10 07:33:00;;;;;;;25.33;16.15;;;3.20;79.00;;;;;;4995071;28;20058;-90
2021/11/10 07:35:27;;;;;;;22.75;15.57;;;3.20;79.00;;;;;;5028884;28;20045;-89
2021/11/10 07:37:54;;;;;;;23.38;16.58;;;3.20;79.00;;;;;;5021410;28;20081;-90
2021/11/10 07:40:24;;;;;;;23.85;17.10;;;3.20;79.00;;;;;;5018833;28;20050;-90
2021/11/10 07:42:52;;;;;;;22.42;16.00;;;3.20;79.00;;;;;;5001586;28;20050;-89
2021/11/10 07:45:34;;;;;;;23.10;16.02;;;3.20;79.10;;;;;;5018273;28;20045;-87
2021/11/10 07:48:05;;;;;;;21.33;16.95;;;3.20;79.10;;;;;;5012101;28;20049;-89
2021/11/10 07:50:33;;;;;;;19.05;15.77;;;3.20;79.10;;;;;;5014392;28;20046;-89
2021/11/10 07:53:00;;;;;;;23.42;15.77;;;3.20;79.10;;;;;;5020036;28;20058;-89
2021/11/10 07:55:28;;;;;;;22.27;16.23;;;3.20;79.10;;;;;;5014149;28;20041;-88
2021/11/10 07:57:55;;;;;;;21.55;16.13;;;3.20;79.10;;;;;;5014315;28;20069;-89
2021/11/10 08:00:39;;;;;;;21.08;16.13;;;3.20;79.10;;;;;;5014374;28;20054;-89
2021/11/10 08:03:07;;;;;;;21.25;16.02;;;3.20;79.20;;;;;;5019662;28;20817;-88
2021/11/10 08:05:34;;;;;;;31.90;15.73;;;3.20;79.20;;;;;;5020975;28;20510;-88
2021/11/10 08:08:01;;;;;;;20.15;15.75;;;3.20;79.20;;;;;;5013449;28;20046;-89
2021/11/10 08:10:55;;;;;;;24.65;16.20;;;3.20;79.20;;;;;;5014475;28;20042;-91
2021/11/10 08:13:23;;;;;;;40.80;20.00;;;3.20;79.20;;;;;;5014595;28;20050;-90
2021/11/10 08:15:52;;;;;;;37.42;18.80;;;3.20;79.30;;;;;;5014263;28;20065;-90
2021/11/10 08:18:19;;;;;;;47.75;23.05;;;3.20;79.30;;;;;;4994874;28;20053;-91
2021/11/10 08:20:47;;;;;;;41.03;21.65;;;3.20;79.40;;;;;;4995185;28;20388;-90
2021/11/10 08:23:19;;;;;;;43.03;22.60;;;3.20;79.40;;;;;;4993979;28;20046;-90
2021/11/10 08:25:47;;;;;;;38.95;20.77;;;3.20;79.40;;;;;;5003012;28;20065;-90
2021/11/10 08:28:15;;;;;;;40.78;21.83;;;3.20;79.40;;;;;;5014385;28;20077;-91
2021/11/10 08:30:42;;;;;;;40.53;21.75;;;3.20;79.50;;;;;;5011727;28;20053;-91
2021/11/10 08:33:09;;;;;;;38.75;21.20;;;3.20;79.50;;;;;;5014271;28;20057;-90
2021/11/10 08:35:37;;;;;;;41.50;21.27;;;3.30;79.60;;;;;;5005316;28;20050;-90
2021/11/10 08:38:04;;;;;;;37.22;22.25;;;3.30;79.60;;;;;;5007637;28;20050;-90
2021/11/10 08:40:31;;;;;;;37.38;21.42;;;3.30;79.60;;;;;;5001210;28;20054;-91
2021/11/10 08:42:58;;;;;;;42.47;24.70;;;3.40;79.70;;;;;;4999480;28;20056;-90
2021/11/10 08:45:33;;;;;;;45.20;28.13;;;3.30;79.70;;;;;;5012691;28;20049;-91
2021/11/10 08:48:04;;;;;;;52.20;25.67;;;3.30;79.70;;;;;;4997800;28;20057;-90
2021/11/10 08:50:35;;;;;;;39.42;25.38;;;3.30;79.70;;;;;;5001093;28;20486;-90
2021/11/10 08:53:03;;;;;;;37.78;24.88;;;3.40;79.80;;;;;;5001505;28;21215;-90
2021/11/10 08:55:30;;;;;;;39.50;23.67;;;3.40;79.80;;;;;;4994562;28;20526;-90
2021/11/10 08:57:57;;;;;;;43.58;24.15;;;3.40;79.80;;;;;;5012312;28;20054;-90
2021/11/10 09:00:28;;;;;;;40.30;24.63;;;3.40;79.90;;;;;;4995799;28;20046;-91
2021/11/10 09:02:58;;;;;;;;;;;3.40;79.90;;;;;;5008139;28;20050;-90
2021/11/10 09:05:25;;;;;;;44.85;23.15;;;3.40;79.90;;;;;;5008216;28;19929;-89
2021/11/10 09:07:52;;;;;;;39.92;23.23;;;3.40;79.90;;;;;;5000938;28;20498;-88
2021/11/10 09:10:21;;;;;;;34.00;23.30;;;3.40;80.00;;;;;;4993949;28;20141;-91
2021/11/10 09:12:50;;;;;;;37.28;23.38;;;3.50;80.10;;;;;;4991010;28;20046;-90
2021/11/10 09:15:21;;;;;;;33.47;23.40;;;3.50;80.20;;;;;;4991672;28;20066;-89
2021/11/10 09:17:48;;;;;;;35.95;23.42;;;3.50;80.30;;;;;;5005298;28;20494;-88
2021/11/10 09:20:25;;;;;;;40.65;23.58;;;3.50;80.40;;;;;;5005085;28;20104;-88
2021/11/10 09:22:57;;;;;;;42.58;23.38;;;3.60;80.50;;;;;;5003488;28;20557;-88
2021/11/10 09:25:27;;;;;;;36.65;24.52;;;3.60;80.60;;;;;;4997893;28;20042;-89
2021/11/10 09:27:57;;;;;;;38.20;24.88;;;3.70;80.80;;;;;;5008081;28;20411;-89
2021/11/10 09:30:27;;;;;;;38.28;24.35;;;3.80;80.90;;;;;;5010030;28;20057;-88
2021/11/10 09:32:55;;;;;;;35.53;23.67;;;3.80;81.10;;;;;;4992467;28;20054;-88
2021/11/10 09:35:23;;;;;;;34.58;23.48;;;3.90;81.20;;;;;;4992533;28;20046;-88
2021/11/10 09:37:52;;;;;;;39.63;25.60;;;3.90;81.30;;;;;;4993257;28;20056;-88
2021/11/10 09:40:22;;;;;;;41.85;27.52;;;4.10;81.50;;;;;;4995938;28;20046;-89
2021/11/10 09:42:49;;;;;;;41.80;26.25;;;4.20;81.70;;;;;;4991376;28;20038;-89
2021/11/10 09:45:19;;;;;;;42.25;27.40;;;4.30;82.00;;;;;;4992182;28;20054;-88
2021/11/10 09:47:47;;;;;;;35.95;26.42;;;4.40;82.20;;;;;;4993591;28;20046;-89
2021/11/10 09:50:18;;;;;;;44.88;28.00;;;4.60;82.30;;;;;;4999688;28;20486;-91
2021/11/10 09:52:47;;;;;;;38.60;25.95;;;4.90;82.50;;;;;;5001859;28;20049;-90
2021/11/10 09:55:19;;;;;;;67.53;33.92;;;5.00;82.60;;;;;;4998639;28;20097;-89
2021/11/10 09:57:48;;;;;;;52.33;30.70;;;5.30;82.60;;;;;;4996125;28;20042;-89
2021/11/10 10:00:24;;;;;;;50.90;29.13;;;5.50;82.60;;;;;;5015452;28;20057;-89
2021/11/10 10:02:51;;;;;;;54.13;30.02;;;5.80;82.60;;;;;;5001104;28;20072;-89
2021/11/10 10:05:21;;;;;;;56.47;29.27;;;6.00;82.50;;;;;;4999429;28;20108;-88
2021/11/10 10:07:54;;;;;;;56.42;30.38;;;6.20;82.40;;;;;;5003394;28;20053;-90
2021/11/10 10:10:21;;;;;;;53.78;28.35;;;6.40;82.30;;;;;;5011712;28;20793;-89
2021/11/10 10:12:49;;;;;;;45.40;27.55;;;6.60;82.30;;;;;;5013279;28;20041;-89
2021/11/10 10:15:18;;;;;;;39.75;24.63;;;6.80;82.20;;;;;;5011727;28;20057;-89
2021/11/10 10:17:47;;;;;;;37.15;23.95;;;7.00;82.00;;;;;;5014268;28;20046;-88
2021/11/10 10:20:41;;;;;;;34.17;22.65;;;7.20;81.90;;;;;;5008178;28;20053;-90
2021/11/10 10:23:15;;;;;;;30.67;21.95;;;7.40;81.70;;;;;;5006009;28;20408;-90
2021/11/10 10:25:43;;;;;;;34.95;21.00;;;7.50;81.50;;;;;;4998831;28;20104;-91
2021/11/10 10:28:16;;;;;;;30.70;20.20;;;7.70;81.30;;;;;;5002268;28;20045;-90
2021/11/10 10:30:48;;;;;;;29.65;18.80;;;7.90;81.10;;;;;;5012889;28;20104;-90
2021/11/10 10:33:39;;;;;;;27.83;20.73;;;8.00;80.90;;;;;;4995955;28;20054;-91
2021/11/10 10:36:11;;;;;;;27.38;18.45;;;8.20;80.70;;;;;;4990958;28;20073;-90
2021/11/10 10:38:43;;;;;;;26.35;18.42;;;8.30;80.50;;;;;;5009862;28;20056;-89
2021/11/10 10:41:10;;;;;;;30.80;19.75;;;8.40;80.20;;;;;;5004824;28;20050;-90
2021/11/10 10:43:47;;;;;;;27.65;17.65;;;8.50;80.00;;;;;;4999453;28;20050;-89
2021/11/10 10:46:15;;;;;;;23.80;17.05;;;8.60;79.80;;;;;;4998879;28;20042;-89
2021/11/10 10:48:43;;;;;;;28.05;18.17;;;8.70;79.50;;;;;;4995825;28;20073;-89
2021/11/10 10:51:14;;;;;;;25.73;16.83;;;8.80;79.20;;;;;;4995795;28;20414;-89
2021/11/10 10:53:49;;;;;;;28.77;17.25;;;8.90;79.00;;;;;;4995214;28;20050;-90
2021/11/10 10:56:23;;;;;;;23.80;15.98;;;8.90;78.80;;;;;;4999429;28;20502;-89
2021/11/10 10:58:56;;;;;;;;;;;9.00;78.60;;;;;;5002614;28;20053;-90
2021/11/10 11:01:29;;;;;;;24.33;16.92;;;9.10;78.40;;;;;;5012878;28;19921;-90
2021/11/10 11:04:06;;;;;;;25.00;16.27;;;9.10;78.20;;;;;;4998337;28;20144;-89
2021/11/10 11:06:46;;;;;;;25.83;15.55;;;9.20;78.10;;;;;;5010197;28;20109;-89
2021/11/10 11:09:25;;;;;;;24.65;15.50;;;9.30;77.90;;;;;;4995181;28;20085;-88
2021/11/10 11:14:39;;;;;;;26.10;15.52;;;9.30;77.70;;;;;;5010695;28;20050;-91
2021/11/10 11:17:18;;;;;;;22.85;16.10;;;9.30;77.60;;;;;;5014317;28;20061;-88
2021/11/10 11:20:06;;;;;;;24.60;14.75;;;9.30;77.50;;;;;;5006893;28;20050;-90
2021/11/10 11:22:50;;;;;;;24.10;15.32;;;9.30;77.50;;;;;;4996290;28;20054;-89
2021/11/10 11:25:19;;;;;;;22.23;14.75;;;9.40;77.50;;;;;;4998563;28;20045;-89
2021/11/10 11:28:03;;;;;;;26.65;14.68;;;9.40;77.50;;;;;;5012084;28;20065;-90
2021/11/10 11:30:36;;;;;;;26.48;15.57;;;9.40;77.60;;;;;;4995406;28;20100;-88
2021/11/10 11:33:07;;;;;;;25.27;14.93;;;9.40;77.60;;;;;;5014262;28;20487;-89
2021/11/10 11:35:37;;;;;;;24.08;14.65;;;9.40;77.70;;;;;;5004344;28;20085;-90
2021/11/10 11:38:12;;;;;;;24.48;13.82;;;9.50;77.70;;;;;;5002851;28;20053;-89
2021/11/10 11:40:39;;;;;;;22.38;13.77;;;9.50;77.70;;;;;;4995496;28;20042;-89
2021/11/10 11:43:09;;;;;;;29.52;13.73;;;9.60;77.70;;;;;;4997081;28;20057;-90
2021/11/10 11:45:39;;;;;;;30.33;12.65;;;9.60;77.70;;;;;;5010508;28;20045;-89
2021/11/10 11:48:08;;;;;;;23.50;12.82;;;9.60;77.60;;;;;;4998781;28;20100;-89
2021/11/10 11:50:37;;;;;;;24.70;13.43;;;9.60;77.50;;;;;;5004013;28;20050;-89
2021/11/10 11:53:04;;;;;;;29.88;13.50;;;9.70;77.40;;;;;;5006743;28;20054;-90
2021/11/10 11:55:55;;;;;;;22.67;12.88;;;9.70;77.40;;;;;;4995945;28;20057;-89
2021/11/10 11:58:34;;;;;;;25.92;12.35;;;9.80;77.20;;;;;;4999546;28;20056;-89
2021/11/10 12:01:08;;;;;;;21.33;12.00;;;9.80;77.20;;;;;;5010011;28;20116;-91
2021/11/10 12:03:38;;;;;;;19.25;12.45;;;9.90;77.10;;;;;;5013360;28;20050;-90
2021/11/10 12:06:06;;;;;;;20.02;12.45;;;9.90;77.00;;;;;;5007788;28;20043;-89
2021/11/10 12:08:46;;;;;;;16.40;11.30;;;9.90;76.90;;;;;;5006021;28;20054;-90
2021/11/10 12:11:16;;;;;;;22.67;12.32;;;9.90;76.80;;;;;;5002137;28;20433;-89
2021/11/10 12:14:05;;;;;;;20.25;11.75;;;10.00;76.70;;;;;;4999576;28;20046;-89
2021/11/10 12:17:08;;;;;;;27.08;12.68;;;10.00;76.60;;;;;;5012917;28;20659;-89
2021/11/10 12:20:01;;;;;;;22.00;11.95;;;10.10;76.40;;;;;;4951864;28;20459;-89
2021/11/10 12:22:54;;;;;;;19.77;12.02;;;10.10;76.30;;;;;;4950574;29;20128;-90
2021/11/10 12:25:21;;;;;;;17.65;11.55;;;10.20;76.20;;;;;;4944517;29;20051;-89
2021/11/10 12:27:48;;;;;;;18.95;11.57;;;10.20;76.10;;;;;;4936386;29;20062;-90
2021/11/10 12:30:22;;;;;;;23.10;11.32;;;10.20;76.00;;;;;;4937119;29;20055;-89
2021/11/10 12:33:03;;;;;;;20.48;12.00;;;10.20;75.90;;;;;;4951145;29;20059;-90
2021/11/10 12:35:42;;;;;;;24.23;12.73;;;10.30;75.90;;;;;;4952382;29;20059;-89
2021/11/10 12:38:20;;;;;;;25.75;13.13;;;10.40;75.80;;;;;;4951131;29;20110;-90
2021/11/10 12:40:53;;;;;;;21.85;12.35;;;10.40;75.80;;;;;;4940768;29;20047;-91
2021/11/10 12:43:24;;;;;;;22.45;12.55;;;10.40;75.70;;;;;;4936707;29;20721;-89
2021/11/10 12:46:05;;;;;;;21.85;11.52;;;10.40;75.60;;;;;;4949911;29;20071;-89
2021/11/10 12:48:33;;;;;;;23.38;11.50;;;10.40;75.50;;;;;;4948123;29;20490;-89
2021/11/10 12:51:27;;;;;;;21.77;11.45;;;10.40;75.40;;;;;;4951451;29;20051;-89
2021/11/10 12:54:01;;;;;;;22.02;11.65;;;10.50;75.30;;;;;;4976409;28;20046;-90